Time,TemperatureF,DewpointF,PressureIn,WindDirection,WindDirectionDegrees,WindSpeedMPH,WindSpeedGustMPH,Humidity,HourlyPrecipIn,Conditions,Clouds,dailyrainin,SoftwareType,DateUTC
2013-04-24 00:02:00,42.4,23.1,29.96,NE,45,6.8,-999.0,46,-99.99,,,0.00,Acu-Link.com,2013-04-24 04:02:00,
2013-04-24 00:17:00,42.3,22.5,29.95,NE,45,4.7,-999.0,45,-99.99,,,0.00,Acu-Link.com,2013-04-24 04:17:00,
2013-04-24 00:33:00,42.3,20.9,29.95,NNE,22,0.0,-999.0,42,-99.99,,,0.00,Acu-Link.com,2013-04-24 04:33:00,
2013-04-24 00:48:00,42.1,17.7,29.93,NNE,22,0.0,-999.0,37,-99.99,,,0.00,Acu-Link.com,2013-04-24 04:48:00,
2013-04-24 01:03:00,42.1,13.7,29.92,NNW,337,0.0,-999.0,31,-99.99,,,0.00,Acu-Link.com,2013-04-24 05:03:00,
2013-04-24 01:19:00,42.4,8.2,29.92,ENE,67,0.0,-999.0,24,-99.99,,,0.00,Acu-Link.com,2013-04-24 05:19:00,
2013-04-24 01:34:00,42.4,7.3,29.91,NNW,337,0.0,-999.0,23,-99.99,,,0.00,Acu-Link.com,2013-04-24 05:34:00,
2013-04-24 01:49:00,42.6,4.4,29.90,NE,45,0.0,-999.0,20,-99.99,,,0.00,Acu-Link.com,2013-04-24 05:49:00,
2013-04-24 02:04:00,42.8,6.6,29.90,North,0,0.0,-999.0,22,-99.99,,,0.00,Acu-Link.com,2013-04-24 06:04:00,
2013-04-24 02:19:00,42.6,4.4,29.90,NE,45,0.0,-999.0,20,-99.99,,,0.00,Acu-Link.com,2013-04-24 06:19:00,
2013-04-24 02:35:00,42.8,-9.9,29.88,NW,315,0.0,-999.0,10,-99.99,,,0.00,Acu-Link.com,2013-04-24 06:35:00,
2013-04-24 02:50:00,42.8,-14.4,29.88,SSW,202,0.0,-999.0,8,-99.99,,,0.00,Acu-Link.com,2013-04-24 06:50:00,
2013-04-24 03:05:00,42.8,-27.6,29.89,WNW,292,0.0,-999.0,4,-99.99,,,0.00,Acu-Link.com,2013-04-24 07:05:00,
2013-04-24 03:21:00,43.0,-51.2,29.90,NNE,22,0.0,-999.0,1,-99.99,,,0.00,Acu-Link.com,2013-04-24 07:21:00,
2013-04-24 03:36:00,43.2,-51.1,29.90,ENE,67,0.0,-999.0,0,-99.99,,,0.00,Acu-Link.com,2013-04-24 07:36:00,
2013-04-24 03:51:00,43.2,-51.1,29.90,SW,225,0.0,-999.0,0,-99.99,,,0.00,Acu-Link.com,2013-04-24 07:51:00,
2013-04-24 04:07:00,43.2,-51.1,29.87,East,90,0.0,-999.0,0,-99.99,,,0.00,Acu-Link.com,2013-04-24 08:07:00,
2013-04-24 04:22:00,43.2,-51.1,29.87,NE,45,0.0,-999.0,0,-99.99,,,0.00,Acu-Link.com,2013-04-24 08:22:00,
2013-04-24 04:37:00,43.3,-51.1,29.88,WNW,292,2.7,-999.0,0,-99.99,,,0.00,Acu-Link.com,2013-04-24 08:37:00,
2013-04-24 04:52:00,43.2,-51.1,29.87,SSW,202,0.0,-999.0,0,-99.99,,,0.00,Acu-Link.com,2013-04-24 08:52:00,
2013-04-24 05:07:00,43.0,-51.2,29.87,NW,315,0.0,-999.0,0,-99.99,,,0.00,Acu-Link.com,2013-04-24 09:07:00,
2013-04-24 05:23:00,42.8,-51.4,29.88,West,270,0.0,-999.0,0,-99.99,,,0.00,Acu-Link.com,2013-04-24 09:23:00,
2013-04-24 05:38:00,42.4,-51.6,29.88,West,270,0.0,-999.0,0,-99.99,,,0.00,Acu-Link.com,2013-04-24 09:38:00,
2013-04-24 05:53:00,41.7,-52.1,29.89,WSW,247,0.0,-999.0,0,-99.99,,,0.00,Acu-Link.com,2013-04-24 09:53:00,
2013-04-24 06:09:00,41.4,-52.2,29.91,West,270,0.0,-999.0,1,-99.99,,,0.00,Acu-Link.com,2013-04-24 10:09:00,
2013-04-24 06:24:00,41.5,-52.2,29.89,West,270,0.0,-999.0,1,-99.99,,,0.00,Acu-Link.com,2013-04-24 10:24:00,
2013-04-24 06:39:00,41.9,-51.9,29.90,West,270,0.0,-999.0,1,-99.99,,,0.00,Acu-Link.com,2013-04-24 10:39:00,
2013-04-24 06:55:00,42.1,-51.8,29.90,WSW,247,0.0,-999.0,1,-99.99,,,0.00,Acu-Link.com,2013-04-24 10:55:00,
2013-04-24 07:10:00,42.4,-51.6,29.91,WSW,247,0.0,-999.0,1,-99.99,,,0.00,Acu-Link.com,2013-04-24 11:10:00,
2013-04-24 07:25:00,43.2,-51.1,29.91,WSW,247,0.0,-999.0,1,-99.99,,,0.00,Acu-Link.com,2013-04-24 11:25:00,
2013-04-24 07:40:00,44.1,-50.6,29.91,West,270,0.0,-999.0,1,-99.99,,,0.00,Acu-Link.com,2013-04-24 11:40:00,
2013-04-24 07:56:00,44.6,-50.3,29.90,WSW,247,0.0,-999.0,1,-99.99,,,0.00,Acu-Link.com,2013-04-24 11:56:00,
2013-04-24 08:11:00,45.7,-49.6,29.90,West,270,2.2,-999.0,0,-99.99,,,0.00,Acu-Link.com,2013-04-24 12:11:00,
2013-04-24 08:26:00,47.8,7.6,29.91,West,270,0.0,-999.0,19,-99.99,,,0.00,Acu-Link.com,2013-04-24 12:26:00,
2013-04-24 08:42:00,49.6,29.7,29.90,East,90,1.7,-999.0,46,-99.99,,,0.00,Acu-Link.com,2013-04-24 12:42:00,
2013-04-24 08:57:00,52.2,38.3,29.89,West,270,0.0,-999.0,59,-99.99,,,0.00,Acu-Link.com,2013-04-24 12:57:00,
2013-04-24 09:12:00,52.9,44.1,29.88,SW,225,1.7,-999.0,72,-99.99,,,0.00,Acu-Link.com,2013-04-24 13:12:00,
2013-04-24 09:28:00,55.6,46.3,29.87,ESE,112,0.0,-999.0,71,-99.99,,,0.00,Acu-Link.com,2013-04-24 13:28:00,
2013-04-24 09:43:00,58.5,48.4,29.87,WSW,247,0.0,-999.0,69,-99.99,,,0.00,Acu-Link.com,2013-04-24 13:43:00,
2013-04-24 09:58:00,59.5,50.1,29.88,WNW,292,0.0,-999.0,71,-99.99,,,0.00,Acu-Link.com,2013-04-24 13:58:00,
2013-04-24 10:13:00,59.2,50.9,29.88,East,90,0.0,-999.0,74,-99.99,,,0.00,Acu-Link.com,2013-04-24 14:13:00,
2013-04-24 10:29:00,63.1,51.6,29.87,SSW,202,0.0,-999.0,66,-99.99,,,0.00,Acu-Link.com,2013-04-24 14:29:00,
2013-04-24 10:44:00,62.1,51.0,29.86,East,90,1.1,-999.0,67,-99.99,,,0.00,Acu-Link.com,2013-04-24 14:44:00,
2013-04-24 10:59:00,63.7,51.3,29.86,SSW,202,0.0,-999.0,64,-99.99,,,0.00,Acu-Link.com,2013-04-24 14:59:00,
2013-04-24 11:15:00,65.5,51.7,29.86,South,180,0.0,-999.0,61,-99.99,,,0.00,Acu-Link.com,2013-04-24 15:15:00,
2013-04-24 11:30:00,66.0,52.6,29.85,ESE,112,0.0,-999.0,62,-99.99,,,0.00,Acu-Link.com,2013-04-24 15:30:00,
2013-04-24 11:45:00,67.1,51.8,29.84,SW,225,2.2,-999.0,58,-99.99,,,0.00,Acu-Link.com,2013-04-24 15:45:00,
2013-04-24 12:01:00,68.2,52.9,29.82,WSW,247,0.0,-999.0,58,-99.99,,,0.00,Acu-Link.com,2013-04-24 16:01:00,
2013-04-24 12:16:00,69.6,52.7,29.81,SW,225,0.0,-999.0,55,-99.99,,,0.00,Acu-Link.com,2013-04-24 16:16:00,
2013-04-24 12:31:00,70.5,52.5,29.81,SW,225,0.0,-999.0,53,-99.99,,,0.00,Acu-Link.com,2013-04-24 16:31:00,
2013-04-24 12:46:00,72.1,54.0,29.78,SSE,157,0.0,-999.0,53,-99.99,,,0.00,Acu-Link.com,2013-04-24 16:46:00,
2013-04-24 13:02:00,73.4,53.6,29.77,West,270,0.0,-999.0,50,-99.99,,,0.00,Acu-Link.com,2013-04-24 17:02:00,
2013-04-24 13:17:00,75.2,54.7,29.76,SSW,202,0.0,-999.0,49,-99.99,,,0.00,Acu-Link.com,2013-04-24 17:17:00,
2013-04-24 13:32:00,74.5,54.1,29.75,WSW,247,0.0,-999.0,49,-99.99,,,0.00,Acu-Link.com,2013-04-24 17:32:00,
2013-04-24 13:47:00,74.7,54.8,29.76,SW,225,0.0,-999.0,50,-99.99,,,0.00,Acu-Link.com,2013-04-24 17:47:00,
2013-04-24 14:02:00,75.4,55.5,29.76,SW,225,0.0,-999.0,50,-99.99,,,0.00,Acu-Link.com,2013-04-24 18:02:00,
2013-04-24 14:18:00,76.3,56.3,29.75,WSW,247,3.7,-999.0,50,-99.99,,,0.00,Acu-Link.com,2013-04-24 18:18:00,
2013-04-24 14:33:00,75.4,56.0,29.75,SW,225,0.0,-999.0,51,-99.99,,,0.00,Acu-Link.com,2013-04-24 18:33:00,
2013-04-24 14:48:00,75.2,55.8,29.75,South,180,0.0,-999.0,51,-99.99,,,0.00,Acu-Link.com,2013-04-24 18:48:00,
2013-04-24 15:04:00,75.6,56.2,29.73,SSW,202,0.0,-999.0,51,-99.99,,,0.00,Acu-Link.com,2013-04-24 19:04:00,
2013-04-24 15:19:00,75.9,57.0,29.73,WSW,247,0.0,-999.0,52,-99.99,,,0.00,Acu-Link.com,2013-04-24 19:19:00,
2013-04-24 15:34:00,75.9,56.5,29.72,South,180,0.0,-999.0,51,-99.99,,,0.00,Acu-Link.com,2013-04-24 19:34:00,
2013-04-24 15:49:00,74.7,55.9,29.72,SW,225,0.0,-999.0,52,-99.99,,,0.00,Acu-Link.com,2013-04-24 19:49:00,
2013-04-24 16:05:00,74.5,57.3,29.71,West,270,0.0,-999.0,55,-99.99,,,0.00,Acu-Link.com,2013-04-24 20:05:00,
2013-04-24 16:20:00,71.6,56.0,29.73,SE,135,0.0,-999.0,58,-99.99,,,0.00,Acu-Link.com,2013-04-24 20:20:00,
2013-04-24 16:35:00,73.2,57.0,29.74,South,180,0.0,-999.0,57,-99.99,,,0.00,Acu-Link.com,2013-04-24 20:35:00,
2013-04-24 16:51:00,71.2,56.6,29.71,SW,225,1.1,-999.0,60,-99.99,,,0.00,Acu-Link.com,2013-04-24 20:51:00,
2013-04-24 17:06:00,71.1,57.0,29.72,SSW,202,0.0,-999.0,61,-99.99,,,0.00,Acu-Link.com,2013-04-24 21:06:00,
2013-04-24 17:21:00,70.2,57.0,29.74,ESE,112,0.0,-999.0,63,-99.99,,,0.00,Acu-Link.com,2013-04-24 21:21:00,
2013-04-24 17:37:00,68.0,56.6,29.73,SSW,202,3.2,-999.0,67,-99.99,,,0.00,Acu-Link.com,2013-04-24 21:37:00,
2013-04-24 17:52:00,67.8,57.3,29.73,South,180,1.1,-999.0,69,-99.99,,,0.00,Acu-Link.com,2013-04-24 21:52:00,
2013-04-24 18:07:00,64.4,57.4,29.72,SSE,157,2.2,-999.0,78,-99.99,,,0.00,Acu-Link.com,2013-04-24 22:07:00,
2013-04-24 18:22:00,61.3,58.0,29.71,South,180,0.0,-999.0,89,-99.99,,,0.00,Acu-Link.com,2013-04-24 22:22:00,
2013-04-24 18:38:00,59.0,58.4,29.72,NE,45,0.0,-999.0,98,-99.99,,,0.00,Acu-Link.com,2013-04-24 22:38:00,
2013-04-24 18:53:00,56.8,56.2,29.71,SSE,157,0.0,-999.0,98,-99.99,,,0.00,Acu-Link.com,2013-04-24 22:53:00,
2013-04-24 19:08:00,54.9,54.3,29.70,SSW,202,2.2,-999.0,98,-99.99,,,0.00,Acu-Link.com,2013-04-24 23:08:00,
2013-04-24 19:24:00,52.7,52.2,29.71,SSE,157,2.2,-999.0,98,-99.99,,,0.00,Acu-Link.com,2013-04-24 23:24:00,
2013-04-24 19:39:00,51.8,51.3,29.72,South,180,0.0,-999.0,98,-99.99,,,0.00,Acu-Link.com,2013-04-24 23:39:00,
2013-04-24 19:54:00,51.6,51.1,29.70,SSE,157,0.0,-999.0,98,-99.99,,,0.00,Acu-Link.com,2013-04-24 23:54:00,
2013-04-24 20:10:00,51.1,48.9,29.73,SE,135,0.0,-999.0,92,-99.99,,,0.00,Acu-Link.com,2013-04-25 00:10:00,
2013-04-24 20:25:00,50.9,39.6,29.72,SSE,157,0.0,-999.0,65,-99.99,,,0.00,Acu-Link.com,2013-04-25 00:25:00,
2013-04-24 20:40:00,50.9,30.3,29.72,South,180,0.0,-999.0,45,-99.99,,,0.00,Acu-Link.com,2013-04-25 00:40:00,
2013-04-24 20:55:00,51.1,20.0,29.73,SE,135,0.0,-999.0,29,-99.99,,,0.00,Acu-Link.com,2013-04-25 00:55:00,
2013-04-24 21:11:00,50.9,3.4,29.74,SE,135,0.0,-999.0,14,-99.99,,,0.00,Acu-Link.com,2013-04-25 01:11:00,
2013-04-24 21:26:00,51.1,-46.3,29.74,ESE,112,0.0,-999.0,0,-99.99,,,0.00,Acu-Link.com,2013-04-25 01:26:00,
2013-04-24 21:41:00,51.1,-46.3,29.73,East,90,0.0,-999.0,0,-99.99,,,0.00,Acu-Link.com,2013-04-25 01:41:00,
2013-04-24 21:57:00,50.9,-46.4,29.74,SE,135,0.0,-999.0,0,-99.99,,,0.00,Acu-Link.com,2013-04-25 01:57:00,
2013-04-24 22:12:00,51.1,-46.3,29.72,SSE,157,0.0,-999.0,0,-99.99,,,0.00,Acu-Link.com,2013-04-25 02:12:00,
2013-04-24 22:27:00,51.3,-46.2,29.72,ESE,112,0.0,-999.0,0,-99.99,,,0.00,Acu-Link.com,2013-04-25 02:27:00,
2013-04-24 22:43:00,51.1,-46.3,29.74,SE,135,0.0,-999.0,0,-99.99,,,0.00,Acu-Link.com,2013-04-25 02:43:00,
2013-04-24 22:58:00,51.1,25.7,29.72,South,180,0.0,-999.0,37,-99.99,,,0.00,Acu-Link.com,2013-04-25 02:58:00,
2013-04-24 23:13:00,51.3,-46.2,29.74,ESE,112,0.0,-999.0,1,-99.99,,,0.00,Acu-Link.com,2013-04-25 03:13:00,
2013-04-24 23:29:00,51.6,-46.0,29.74,SE,135,1.7,-999.0,1,-99.99,,,0.00,Acu-Link.com,2013-04-25 03:29:00,
2013-04-24 23:44:00,51.8,-45.8,29.71,SSW,202,1.1,-999.0,1,-99.99,,,0.00,Acu-Link.com,2013-04-25 03:44:00,
2013-04-24 23:59:00,52.2,-45.6,29.71,SSW,202,0.0,-999.0,1,-99.99,,,0.00,Acu-Link.com,2013-04-25 03:59:00,